Aérodrome :
LOGIN :

S'inscrire | Disclaimer

   EN    FR    IT 

 










Légende :    VFR   VFR Marginal   IFR   IFR Intensif   IFR Très Intensif
Visi : 
Plafond : 
>= 8 km
>= 3000ft
5 à 8 km
1000 à 3000 ft
1500m à 5 km
500 à 1000 ft
800 à 1500m
200 à 500 ft
< 800m
< 200 ft
Symboles :   Orages  Brouillard  Fortes neiges  Fortes précipitations  Vent > 20 kt
SIGMETs :   Divers  Orages  Givrage  Turbulence  Onde Orograph.  Cendres Volcan.






- Altitude de l'aérodrome : 364 ft
- Code IATA : FRA


EDDF - Frankfurt Int.

DERNIER METAR :
  • 180420Z VRB01KT 9999 -RA OVC034 06/01 Q1020 NOSIG

METARs EXPIRÉS :
  • 180350Z VRB01KT 9999 -RA OVC036 06/02 Q1020 NOSIG
  • 180320Z VRB02KT 9999 BKN038 06/01 Q1020 NOSIG
  • 180250Z VRB01KT 9999 BKN040 06/01 Q1020 NOSIG
  • 180220Z VRB02KT 9999 BKN042 06/01 Q1020 NOSIG
  • 180150Z 02004KT 9999 SCT042 07/01 Q1020 NOSIG

TAF TAF EDDF
Valide du 18 à 00h jusqu'au 19 à 06h UTC


172300Z 1800/1906 VRB03KT 9999 BKN040
BECMG 1807/1810 02005KT
TEMPO 1812/1819 SHRA BKN025CB
BECMG 1816/1818 VRB02KT
PROB30
TEMPO 1903/1906 3000 BR



MET'MAP, la Météo Aéronautique d'un coup d'oeil ! - Copyright ORBIFLY Décembre 2007 - Disclaimer

ORBIFLY MET'MAP TEAM :

Programmation & Développement : Alexandra Zaïnal
Sur une idée originale de : Baudouin d'Aumeries
Assistance à la programmation : Marc-Olivier Méhu
Soutien technique & logistique : Manuel Goepfert

Contact : metmap@orbifly.com




SOURCES & CREDITS :

   NOAA